createdAt,value
2022-12-04T00:01:13.692Z,51.05
2022-12-04T00:03:42.023Z,54.08
2022-12-04T00:06:11.591Z,53.03
2022-12-04T00:08:39.649Z,46.83
2022-12-04T00:11:10.779Z,51.30
2022-12-04T00:13:39.296Z,51.50
2022-12-04T00:16:08.877Z,52.28
2022-12-04T00:18:37.026Z,57.28
2022-12-04T00:21:05.963Z,50.65
2022-12-04T00:23:34.145Z,56.05
2022-12-04T00:26:02.678Z,55.05
2022-12-04T00:28:31.855Z,56.42
2022-12-04T00:30:59.634Z,56.70
2022-12-04T00:33:27.603Z,51.58
2022-12-04T00:35:59.000Z,57.05
2022-12-04T00:40:54.921Z,53.42
2022-12-04T00:43:23.808Z,57.65
2022-12-04T00:45:53.058Z,53.78
2022-12-04T00:48:20.956Z,55.20
2022-12-04T00:50:48.702Z,56.88
2022-12-04T00:53:16.715Z,51.55
2022-12-04T00:55:45.236Z,52.92
2022-12-04T00:58:13.168Z,55.72
2022-12-04T01:00:42.566Z,53.58
2022-12-04T01:03:11.797Z,54.47
2022-12-04T01:05:40.697Z,53.65
2022-12-04T01:08:08.882Z,58.00
2022-12-04T01:10:39.634Z,53.58
2022-12-04T01:13:07.510Z,58.42
2022-12-04T01:15:39.685Z,54.17
2022-12-04T01:18:07.868Z,60.00
2022-12-04T01:20:36.977Z,56.08
2022-12-04T01:23:04.890Z,51.75
2022-12-04T01:25:32.890Z,59.42
2022-12-04T01:28:00.712Z,50.85
2022-12-04T01:30:28.826Z,55.22
2022-12-04T01:32:56.581Z,55.50
2022-12-04T01:35:24.356Z,52.58
2022-12-04T01:37:53.449Z,55.85
2022-12-04T01:40:21.185Z,59.45
2022-12-04T01:42:48.939Z,55.17
2022-12-04T01:45:37.833Z,53.55
2022-12-04T01:48:18.789Z,50.95
2022-12-04T01:50:48.656Z,53.60
2022-12-04T01:53:19.132Z,56.92
2022-12-04T01:55:48.692Z,53.40
2022-12-04T01:58:18.540Z,59.97
2022-12-04T02:00:51.513Z,55.28
2022-12-04T02:03:20.037Z,53.88
2022-12-04T02:05:47.767Z,49.67
2022-12-04T02:08:17.116Z,55.05
2022-12-04T02:10:52.514Z,56.50
2022-12-04T02:13:27.275Z,54.05
2022-12-04T02:16:04.554Z,54.42
2022-12-04T02:21:10.002Z,54.47
2022-12-04T02:24:02.635Z,52.80
2022-12-04T02:26:41.069Z,54.75
2022-12-04T02:29:15.304Z,59.50
2022-12-04T02:31:50.032Z,51.08
2022-12-04T02:34:24.564Z,57.22
2022-12-04T02:37:00.657Z,61.80
2022-12-04T02:39:35.402Z,52.70
2022-12-04T02:42:10.136Z,56.42
2022-12-04T02:44:43.255Z,53.40
2022-12-04T02:47:14.551Z,56.38
2022-12-04T02:49:47.292Z,58.80
2022-12-04T02:52:23.799Z,59.72
2022-12-04T02:54:56.731Z,57.97
2022-12-04T02:57:40.148Z,55.88
2022-12-04T03:00:11.318Z,58.67
2022-12-04T03:02:44.671Z,56.95
2022-12-04T03:05:16.788Z,57.45
2022-12-04T03:07:47.935Z,62.35
2022-12-04T03:10:19.621Z,59.92
2022-12-04T03:12:51.922Z,58.28
2022-12-04T03:15:26.719Z,60.42
2022-12-04T03:17:59.444Z,56.28
2022-12-04T03:20:28.103Z,58.88
2022-12-04T03:23:00.592Z,55.42
2022-12-04T03:25:35.816Z,57.63
2022-12-04T03:28:08.901Z,65.72
2022-12-04T03:30:43.147Z,55.50
2022-12-04T03:33:16.266Z,63.22
2022-12-04T03:35:50.933Z,55.95
2022-12-04T03:38:24.042Z,58.58
2022-12-04T03:41:03.429Z,53.20
2022-12-04T03:43:37.412Z,53.60
2022-12-04T03:46:12.692Z,53.03
2022-12-04T03:48:45.124Z,56.97
2022-12-04T03:51:19.328Z,54.70
2022-12-04T03:53:53.812Z,58.28
2022-12-04T03:56:24.326Z,57.80
2022-12-04T03:58:56.481Z,54.70
2022-12-04T04:01:32.077Z,62.20
2022-12-04T04:04:04.473Z,56.40
2022-12-04T04:06:37.853Z,61.15
2022-12-04T04:09:11.793Z,59.88
2022-12-04T04:11:44.230Z,56.92
2022-12-04T04:14:34.429Z,55.85
2022-12-04T04:17:26.900Z,57.55
2022-12-04T04:20:17.708Z,56.35
2022-12-04T04:23:06.775Z,59.47
2022-12-04T04:25:37.464Z,60.83
2022-12-04T04:28:05.198Z,56.25
2022-12-04T04:30:35.275Z,62.95
2022-12-04T04:33:10.507Z,64.43
2022-12-04T04:35:48.215Z,63.17
2022-12-04T04:38:26.587Z,60.08
2022-12-04T04:41:00.153Z,57.35
2022-12-04T04:43:35.476Z,59.90
2022-12-04T04:46:07.987Z,54.22
2022-12-04T04:48:42.051Z,60.30
2022-12-04T04:51:11.358Z,62.88
2022-12-04T04:53:43.320Z,58.90
2022-12-04T04:56:11.363Z,64.57
2022-12-04T04:58:39.147Z,62.70
2022-12-04T05:01:09.808Z,59.92
2022-12-04T05:03:39.391Z,58.38
2022-12-04T05:06:07.430Z,62.95
2022-12-04T05:08:35.909Z,65.93
2022-12-04T05:11:04.194Z,69.82
2022-12-04T05:13:32.800Z,65.18
2022-12-04T05:16:02.656Z,65.57
2022-12-04T05:18:30.676Z,55.85
2022-12-04T05:20:58.871Z,55.70
2022-12-04T05:23:26.792Z,58.72
2022-12-04T05:26:00.263Z,59.55
2022-12-04T05:28:28.614Z,58.63
2022-12-04T05:30:57.305Z,57.47
2022-12-04T05:33:25.571Z,58.35
2022-12-04T05:36:02.433Z,53.53
2022-12-04T05:38:30.598Z,58.28
2022-12-04T05:40:59.109Z,60.88
2022-12-04T05:43:27.519Z,58.95
2022-12-04T05:45:55.320Z,59.85
2022-12-04T05:48:23.084Z,57.40
2022-12-04T05:50:50.796Z,62.60
2022-12-04T05:53:19.901Z,55.38
2022-12-04T05:55:55.408Z,55.38
2022-12-04T05:58:23.131Z,51.35
2022-12-04T06:00:50.868Z,57.20
2022-12-04T06:03:18.982Z,54.30
2022-12-04T06:05:47.045Z,55.28
2022-12-04T06:08:15.271Z,53.92
2022-12-04T06:10:44.447Z,64.53
2022-12-04T06:13:12.246Z,60.83
2022-12-04T06:15:41.224Z,58.10
2022-12-04T06:18:09.316Z,56.75
2022-12-04T06:20:37.194Z,56.90
2022-12-04T06:23:05.044Z,54.53
2022-12-04T06:25:32.770Z,55.00
2022-12-04T06:28:01.882Z,53.10
2022-12-04T06:30:30.303Z,58.53
2022-12-04T06:32:58.057Z,55.08
2022-12-04T06:35:25.920Z,48.20
2022-12-04T06:37:53.696Z,53.75
2022-12-04T06:40:21.448Z,54.00
2022-12-04T06:42:49.272Z,53.00
2022-12-04T06:45:18.590Z,58.38
2022-12-04T06:47:46.341Z,56.55
2022-12-04T06:50:14.101Z,57.83
2022-12-04T06:52:41.847Z,54.67
2022-12-04T06:55:09.959Z,57.03
2022-12-04T06:57:37.667Z,52.00
2022-12-04T07:00:06.620Z,57.92
2022-12-04T07:02:35.791Z,53.70
2022-12-04T07:05:03.767Z,55.05
2022-12-04T07:07:31.493Z,60.80
2022-12-04T07:09:59.305Z,55.95
2022-12-04T07:12:27.040Z,54.50
2022-12-04T07:14:54.762Z,51.35
2022-12-04T07:17:22.537Z,55.67
2022-12-04T07:19:51.635Z,51.85
2022-12-04T07:22:19.458Z,57.47
2022-12-04T07:24:47.232Z,55.92
2022-12-04T07:27:14.968Z,57.25
2022-12-04T07:29:43.656Z,55.90
2022-12-04T07:32:11.449Z,58.63
2022-12-04T07:34:39.225Z,54.38
2022-12-04T07:37:08.337Z,58.08
2022-12-04T07:39:36.055Z,56.60
2022-12-04T07:42:03.933Z,57.25
2022-12-04T07:44:31.981Z,53.97
2022-12-04T07:46:59.719Z,60.95
2022-12-04T07:49:28.135Z,56.63
2022-12-04T07:51:55.867Z,50.88
2022-12-04T07:54:25.000Z,52.80
2022-12-04T07:56:52.717Z,58.80
2022-12-04T07:59:20.586Z,60.30
2022-12-04T08:01:48.394Z,63.80
2022-12-04T08:04:16.252Z,56.20
2022-12-04T08:06:44.183Z,64.85
2022-12-04T08:09:14.591Z,54.00
2022-12-04T08:11:44.037Z,56.63
2022-12-04T08:14:13.487Z,58.38
2022-12-04T08:16:41.450Z,57.75
2022-12-04T08:19:09.290Z,62.20
2022-12-04T08:21:37.116Z,63.15
2022-12-04T08:24:04.911Z,53.53
2022-12-04T08:26:33.726Z,58.42
2022-12-04T08:29:03.985Z,54.03
2022-12-04T08:31:34.172Z,55.13
2022-12-04T08:34:03.699Z,51.03
2022-12-04T08:36:31.618Z,57.60
2022-12-04T08:38:59.400Z,58.53
2022-12-04T08:41:28.094Z,55.25
2022-12-04T08:43:56.425Z,53.90
2022-12-04T08:46:27.201Z,54.83
2022-12-04T08:48:55.730Z,53.15
2022-12-04T08:51:25.697Z,56.97
2022-12-04T08:53:55.834Z,57.80
2022-12-04T08:56:24.170Z,56.10
2022-12-04T08:58:51.964Z,52.65
2022-12-04T09:01:20.177Z,46.78
2022-12-04T09:03:49.429Z,53.35
2022-12-04T09:06:18.135Z,46.83
2022-12-04T09:08:45.949Z,54.47
2022-12-04T09:11:16.655Z,52.13
2022-12-04T09:13:48.369Z,50.25
2022-12-04T09:16:18.467Z,52.85
2022-12-04T09:18:46.876Z,53.33
2022-12-04T09:21:17.996Z,50.60
2022-12-04T09:23:46.528Z,52.58
2022-12-04T09:26:21.519Z,53.67
2022-12-04T09:28:49.889Z,47.50
2022-12-04T09:31:19.057Z,53.30
2022-12-04T09:33:46.969Z,48.03
2022-12-04T09:36:16.985Z,51.03
2022-12-04T09:38:46.169Z,48.17
2022-12-04T09:41:31.060Z,49.78
2022-12-04T09:44:03.097Z,47.28
2022-12-04T09:46:37.538Z,52.55
2022-12-04T09:49:11.434Z,51.45
2022-12-04T09:51:43.141Z,53.08
2022-12-04T09:54:15.384Z,47.88
2022-12-04T09:56:46.299Z,48.78
2022-12-04T09:59:22.131Z,51.03
2022-12-04T10:01:53.073Z,47.70
2022-12-04T10:04:20.971Z,47.85
2022-12-04T10:06:55.865Z,51.83
2022-12-04T10:09:28.663Z,41.47
2022-12-04T10:12:08.702Z,42.78
2022-12-04T10:14:52.119Z,44.70
2022-12-04T10:17:33.267Z,48.42
2022-12-04T10:20:12.711Z,40.22
2022-12-04T10:22:52.657Z,42.20
2022-12-04T10:25:23.283Z,43.30
2022-12-04T10:27:54.802Z,39.50
2022-12-04T10:30:25.022Z,41.92
2022-12-04T10:32:57.608Z,37.78
2022-12-04T10:35:29.442Z,37.65
2022-12-04T10:38:02.836Z,38.25
2022-12-04T10:40:35.610Z,36.92
2022-12-04T10:43:12.574Z,37.67
2022-12-04T10:45:40.482Z,34.58
2022-12-04T10:48:14.486Z,36.25
2022-12-04T10:50:42.350Z,34.28
2022-12-04T10:53:14.089Z,34.83
2022-12-04T10:55:42.183Z,34.40
2022-12-04T10:58:16.455Z,33.05
2022-12-04T11:00:46.319Z,31.27
2022-12-04T11:03:26.673Z,37.88
2022-12-04T11:05:57.790Z,30.52
2022-12-04T11:08:32.138Z,33.42
2022-12-04T11:11:02.802Z,32.05
2022-12-04T11:13:30.823Z,36.47
2022-12-04T11:16:00.161Z,30.55
2022-12-04T11:18:29.940Z,29.63
2022-12-04T11:21:01.308Z,30.08
2022-12-04T11:26:05.859Z,30.45
2022-12-04T11:28:43.308Z,27.17
2022-12-04T11:31:17.487Z,28.75
2022-12-04T11:33:48.989Z,32.03
2022-12-04T11:36:22.828Z,30.17
2022-12-04T11:38:55.235Z,27.52
2022-12-04T11:41:28.817Z,29.17
2022-12-04T11:44:00.340Z,28.15
2022-12-04T11:46:31.214Z,26.70
2022-12-04T11:48:59.343Z,28.17
2022-12-04T11:51:40.291Z,28.35
2022-12-04T11:54:18.607Z,26.48
2022-12-04T11:56:51.521Z,24.77
2022-12-04T11:59:55.678Z,25.83
2022-12-04T12:02:39.748Z,26.83
2022-12-04T12:05:35.853Z,27.80
2022-12-04T12:08:13.859Z,27.38
2022-12-04T12:10:52.260Z,27.25
2022-12-04T12:13:31.223Z,28.40
2022-12-04T12:16:09.186Z,28.10
2022-12-04T12:18:49.703Z,27.30
2022-12-04T12:21:22.768Z,27.13
2022-12-04T12:24:04.424Z,25.77
2022-12-04T12:26:45.825Z,24.73
2022-12-04T12:29:33.980Z,24.08
2022-12-04T12:32:12.083Z,23.58
2022-12-04T12:34:41.867Z,26.75
2022-12-04T12:37:20.100Z,23.73
2022-12-04T12:39:56.272Z,25.50
2022-12-04T12:42:32.026Z,23.30
2022-12-04T12:45:06.898Z,25.42
2022-12-04T12:47:41.242Z,25.38
2022-12-04T12:50:16.712Z,21.60
2022-12-04T12:52:53.642Z,22.88
2022-12-04T12:55:24.999Z,22.92
2022-12-04T13:00:31.249Z,24.05
2022-12-04T13:03:03.381Z,25.13
2022-12-04T13:05:34.808Z,21.77
2022-12-04T13:10:38.929Z,25.30
2022-12-04T13:13:15.082Z,24.75
2022-12-04T13:15:46.466Z,24.70
2022-12-04T13:20:54.068Z,24.88
2022-12-04T13:23:38.379Z,24.02
2022-12-04T13:26:15.863Z,24.83
2022-12-04T13:28:54.563Z,24.40
2022-12-04T13:34:31.074Z,27.98
2022-12-04T13:37:06.956Z,22.45
2022-12-04T13:40:08.555Z,26.35
2022-12-04T13:42:36.516Z,24.63
2022-12-04T13:45:11.384Z,25.55
2022-12-04T13:47:39.407Z,23.25
2022-12-04T13:50:26.463Z,25.55
2022-12-04T13:52:56.880Z,26.27
2022-12-04T13:55:28.476Z,24.25
2022-12-04T13:57:58.523Z,24.40
2022-12-04T14:00:31.508Z,26.85
2022-12-04T14:03:02.272Z,28.67
2022-12-04T14:05:34.117Z,26.17
2022-12-04T14:08:07.720Z,28.40
2022-12-04T14:10:38.961Z,31.83
2022-12-04T14:13:17.111Z,29.73
2022-12-04T14:15:47.026Z,33.25
2022-12-04T14:18:25.844Z,30.58
2022-12-04T14:21:01.296Z,30.00
2022-12-04T14:23:36.259Z,31.63
2022-12-04T14:26:05.394Z,30.90
2022-12-04T14:28:43.796Z,31.15
2022-12-04T14:31:25.077Z,29.75
2022-12-04T14:33:57.259Z,32.60
2022-12-04T14:36:28.046Z,34.85
2022-12-04T14:39:06.318Z,32.75
2022-12-04T14:41:34.291Z,35.13
2022-12-04T14:44:02.196Z,35.25
2022-12-04T14:46:41.139Z,37.53
2022-12-04T14:49:22.777Z,38.60
2022-12-04T14:52:00.848Z,35.03
2022-12-04T14:54:39.840Z,40.72
2022-12-04T14:57:22.530Z,40.28
2022-12-04T14:59:53.456Z,43.03
2022-12-04T15:02:29.263Z,36.10
2022-12-04T15:04:57.834Z,36.50
2022-12-04T15:07:29.494Z,40.63
2022-12-04T15:10:17.205Z,40.80
2022-12-04T15:12:48.651Z,43.30
2022-12-04T15:18:02.740Z,37.10
2022-12-04T15:20:38.814Z,42.10
2022-12-04T15:23:07.360Z,38.70
2022-12-04T15:25:41.176Z,44.58
2022-12-04T15:28:15.030Z,42.10
2022-12-04T15:30:44.700Z,38.42
2022-12-04T15:33:21.446Z,42.38
2022-12-04T15:35:53.749Z,47.03
2022-12-04T15:38:21.912Z,41.85
2022-12-04T15:40:57.778Z,40.53
2022-12-04T15:43:31.327Z,44.25
2022-12-04T15:45:59.689Z,41.42
2022-12-04T15:48:30.920Z,40.58
2022-12-04T15:51:01.783Z,40.20
2022-12-04T15:53:32.819Z,47.08
2022-12-04T15:56:04.030Z,40.25
2022-12-04T15:58:33.731Z,41.63
2022-12-04T16:01:03.430Z,43.67
2022-12-04T16:03:35.436Z,40.60
2022-12-04T16:06:09.760Z,39.65
2022-12-04T16:08:40.400Z,42.55
2022-12-04T16:11:25.443Z,42.40
2022-12-04T16:14:05.386Z,38.22
2022-12-04T16:16:33.164Z,43.85
2022-12-04T16:19:05.020Z,40.00
2022-12-04T16:21:33.113Z,40.83
2022-12-04T16:24:04.473Z,42.15
2022-12-04T16:29:00.575Z,42.05
2022-12-04T16:31:28.520Z,39.58
2022-12-04T16:33:56.386Z,43.50
2022-12-04T16:36:25.568Z,43.75
2022-12-04T16:38:54.147Z,40.53
2022-12-04T16:41:22.328Z,41.47
2022-12-04T16:43:54.886Z,42.85
2022-12-04T16:46:25.451Z,41.85
2022-12-04T16:48:53.806Z,39.80
2022-12-04T16:51:23.406Z,41.50
2022-12-04T16:53:53.452Z,42.03
2022-12-04T16:56:21.778Z,39.35
2022-12-04T16:58:51.643Z,41.20
2022-12-04T17:01:24.284Z,34.95
2022-12-04T17:03:52.735Z,43.40
2022-12-04T17:06:20.858Z,44.75
2022-12-04T17:08:48.603Z,44.97
2022-12-04T17:11:19.344Z,40.38
2022-12-04T17:13:47.472Z,41.75
2022-12-04T17:16:17.647Z,38.63
2022-12-04T17:18:47.568Z,42.47
2022-12-04T17:21:16.025Z,40.88
2022-12-04T17:23:44.492Z,42.40
2022-12-04T17:26:14.356Z,40.08
2022-12-04T17:28:43.663Z,38.28
2022-12-04T17:31:15.605Z,41.67
2022-12-04T17:33:44.041Z,39.58
2022-12-04T17:36:13.396Z,40.50
2022-12-04T17:38:41.739Z,39.40
2022-12-04T17:41:13.649Z,39.75
2022-12-04T17:43:43.627Z,36.78
2022-12-04T17:46:12.907Z,36.58
2022-12-04T17:48:41.148Z,40.75
2022-12-04T17:51:10.694Z,34.75
2022-12-04T17:53:39.325Z,36.63
2022-12-04T17:56:09.297Z,36.55
2022-12-04T17:58:37.409Z,34.95
2022-12-04T18:01:09.469Z,33.17
2022-12-04T18:03:37.995Z,33.97
2022-12-04T18:06:12.948Z,33.40
2022-12-04T18:08:44.078Z,37.08
2022-12-04T18:11:16.112Z,33.40
2022-12-04T18:13:43.863Z,35.78
2022-12-04T18:16:13.413Z,33.45
2022-12-04T18:18:41.357Z,35.97
2022-12-04T18:21:10.969Z,35.85
2022-12-04T18:23:44.430Z,33.70
2022-12-04T18:26:13.742Z,34.35
2022-12-04T18:28:41.880Z,34.65
2022-12-04T18:31:10.721Z,34.38
2022-12-04T18:33:41.139Z,39.70
2022-12-04T18:36:12.999Z,40.15
2022-12-04T18:38:40.753Z,38.08
2022-12-04T18:41:10.414Z,40.33
2022-12-04T18:43:40.083Z,43.70
2022-12-04T18:46:09.728Z,42.28
2022-12-04T18:48:39.907Z,40.65
2022-12-04T18:51:16.235Z,41.65
2022-12-04T18:53:44.434Z,40.03
2022-12-04T18:56:12.241Z,43.28
2022-12-04T18:58:39.991Z,41.63
2022-12-04T19:01:08.094Z,47.88
2022-12-04T19:03:36.401Z,43.00
2022-12-04T19:06:05.719Z,43.67
2022-12-04T19:08:38.660Z,45.13
2022-12-04T19:11:11.638Z,45.00
2022-12-04T19:13:39.509Z,48.10
2022-12-04T19:16:12.314Z,45.60
2022-12-04T19:18:40.273Z,44.65
2022-12-04T19:21:09.738Z,43.20
2022-12-04T19:23:37.670Z,45.45
2022-12-04T19:26:05.779Z,49.20
2022-12-04T19:28:33.836Z,45.72
2022-12-04T19:31:01.753Z,46.70
2022-12-04T19:33:29.847Z,46.15
2022-12-04T19:35:59.163Z,47.75
2022-12-04T19:38:28.984Z,45.92
2022-12-04T19:41:05.078Z,49.35
2022-12-04T19:43:32.954Z,45.08
2022-12-04T19:46:00.815Z,46.25
2022-12-04T19:48:28.899Z,44.10
2022-12-04T19:50:56.736Z,49.45
2022-12-04T19:53:24.509Z,46.47
2022-12-04T19:55:53.638Z,47.47
2022-12-04T19:58:21.541Z,44.47
2022-12-04T20:00:49.348Z,45.70
2022-12-04T20:03:17.177Z,44.33
2022-12-04T20:05:44.902Z,44.22
2022-12-04T20:10:39.472Z,49.75
2022-12-04T20:13:08.609Z,45.63
2022-12-04T20:15:36.756Z,49.45
2022-12-04T20:18:04.987Z,46.22
2022-12-04T20:20:33.007Z,50.17
2022-12-04T20:23:00.826Z,53.03
2022-12-04T20:25:28.629Z,42.70
2022-12-04T20:27:56.413Z,48.35
2022-12-04T20:30:25.678Z,48.60
2022-12-04T20:32:53.529Z,48.70
2022-12-04T20:35:21.324Z,50.22
2022-12-04T20:37:49.255Z,45.47
2022-12-04T20:40:17.446Z,48.00
2022-12-04T20:42:45.356Z,49.28
2022-12-04T20:45:13.205Z,48.80
2022-12-04T20:47:42.356Z,43.90
2022-12-04T20:50:11.057Z,49.78
2022-12-04T20:52:39.419Z,49.15
2022-12-04T20:55:08.952Z,51.88
2022-12-04T20:57:37.424Z,49.75
2022-12-04T21:00:10.974Z,48.75
2022-12-04T21:02:58.466Z,51.20
2022-12-04T21:05:26.312Z,47.72
2022-12-04T21:07:54.123Z,49.90
2022-12-04T21:10:21.946Z,45.20
2022-12-04T21:13:07.413Z,47.58
2022-12-04T21:15:54.095Z,50.55
2022-12-04T21:18:23.244Z,47.75
2022-12-04T21:20:50.999Z,52.78
2022-12-04T21:23:19.375Z,48.15
2022-12-04T21:25:47.095Z,46.38
2022-12-04T21:28:14.859Z,47.97
2022-12-04T21:30:42.667Z,54.70
2022-12-04T21:33:10.449Z,50.13
2022-12-04T21:35:41.472Z,47.75
2022-12-04T21:38:09.258Z,47.80
2022-12-04T21:40:42.165Z,47.30
2022-12-04T21:43:10.399Z,51.20
2022-12-04T21:45:38.139Z,45.17
2022-12-04T21:48:06.250Z,48.67
2022-12-04T21:50:34.009Z,51.63
2022-12-04T21:53:03.128Z,48.80
2022-12-04T21:55:30.915Z,47.90
2022-12-04T21:57:58.672Z,49.58
2022-12-04T22:00:26.402Z,45.50
2022-12-04T22:02:54.131Z,45.13
2022-12-04T22:05:21.933Z,48.92
2022-12-04T22:07:49.711Z,46.60
2022-12-04T22:10:19.030Z,49.63
2022-12-04T22:12:50.681Z,47.33
2022-12-04T22:15:19.179Z,50.00
2022-12-04T22:17:46.933Z,48.78
2022-12-04T22:20:16.108Z,48.03
2022-12-04T22:22:43.932Z,45.45
2022-12-04T22:25:11.799Z,43.00
2022-12-04T22:27:40.917Z,48.30
2022-12-04T22:30:09.678Z,45.33
2022-12-04T22:32:37.456Z,45.95
2022-12-04T22:35:05.749Z,49.33
2022-12-04T22:37:33.699Z,46.60
2022-12-04T22:40:01.578Z,47.25
2022-12-04T22:42:29.419Z,48.58
2022-12-04T22:44:58.588Z,45.42
2022-12-04T22:47:26.425Z,48.40
2022-12-04T22:49:54.432Z,46.50
2022-12-04T22:52:22.364Z,46.10
2022-12-04T22:54:51.155Z,43.45
2022-12-04T22:57:19.494Z,46.13
2022-12-04T22:59:47.418Z,46.05
2022-12-04T23:02:16.559Z,46.50
2022-12-04T23:04:44.439Z,45.92
2022-12-04T23:07:12.339Z,46.35
2022-12-04T23:09:40.519Z,45.95
2022-12-04T23:12:08.385Z,50.15
2022-12-04T23:14:36.934Z,42.85
2022-12-04T23:17:05.202Z,44.78
2022-12-04T23:19:34.394Z,46.90
2022-12-04T23:22:02.121Z,42.58
2022-12-04T23:24:29.859Z,47.63
2022-12-04T23:26:57.608Z,41.45
2022-12-04T23:32:13.111Z,39.63
2022-12-04T23:34:42.169Z,43.92
2022-12-04T23:37:10.321Z,40.42
2022-12-04T23:39:38.095Z,40.85
2022-12-04T23:42:05.892Z,43.15
2022-12-04T23:44:33.648Z,37.35
2022-12-04T23:47:01.465Z,40.45
2022-12-04T23:49:29.451Z,39.33
2022-12-04T23:51:58.607Z,41.58
2022-12-04T23:54:27.241Z,38.33
2022-12-04T23:56:55.885Z,38.53
2022-12-04T23:59:23.628Z,37.65
